Columbia, New Hampshire
Current Conditions -  °F | °C
As of 8:52 PM on Friday 24 Oct 2014 (Local Time) from KBML Reporting Station
Overcast Overcast  
Wind Chill: 41°   Ceiling: 1600
Heat Index: 44°   Visibility: 10mi
Dew Point: 39°   Wind: 6mph
Humidity: 82%   Direction: 320°NW
Pressure: 29.78"   Gusts: NA
Location:  44.7189°N, 71.4659°W
Report Text: KBML 250052Z AUTO 32005KT 10SM OVC016 07/04 A2978 RMK AO2 SLP091 T00670039
Loading
Personal Weather Stations






























Interactive Weather Map
Tropical Storm Tracking
New forecast layout! Learn more

10-Day Weather Forecast

Advertisements
Track Severe Weather on mobile